sensor_id;sensor_type;location;lat;lon;timestamp;P1;durP1;ratioP1;P2;durP2;ratioP2
23730;SDS011;12046;44.702;10.622;2022-10-17T00:02:26;19.77;;;14.73;;
23730;SDS011;12046;44.702;10.622;2022-10-17T00:04:52;24.38;;;15.45;;
23730;SDS011;12046;44.702;10.622;2022-10-17T00:07:18;23.60;;;15.80;;
23730;SDS011;12046;44.702;10.622;2022-10-17T00:09:44;22.85;;;15.90;;
23730;SDS011;12046;44.702;10.622;2022-10-17T00:12:10;20.63;;;14.77;;
23730;SDS011;12046;44.702;10.622;2022-10-17T00:14:36;20.85;;;14.27;;
23730;SDS011;12046;44.702;10.622;2022-10-17T00:17:02;22.42;;;15.20;;
23730;SDS011;12046;44.702;10.622;2022-10-17T00:19:28;19.98;;;13.48;;
23730;SDS011;12046;44.702;10.622;2022-10-17T00:21:54;24.42;;;15.52;;
23730;SDS011;12046;44.702;10.622;2022-10-17T00:24:20;22.80;;;14.68;;
23730;SDS011;12046;44.702;10.622;2022-10-17T00:26:45;18.63;;;13.77;;
23730;SDS011;12046;44.702;10.622;2022-10-17T00:29:11;23.20;;;15.43;;
23730;SDS011;12046;44.702;10.622;2022-10-17T00:31:37;20.92;;;14.23;;
23730;SDS011;12046;44.702;10.622;2022-10-17T00:34:03;21.75;;;14.60;;
23730;SDS011;12046;44.702;10.622;2022-10-17T00:36:29;22.38;;;15.45;;
23730;SDS011;12046;44.702;10.622;2022-10-17T00:38:56;22.42;;;15.20;;
23730;SDS011;12046;44.702;10.622;2022-10-17T00:41:25;18.67;;;13.40;;
23730;SDS011;12046;44.702;10.622;2022-10-17T00:46:19;23.05;;;15.77;;
23730;SDS011;12046;44.702;10.622;2022-10-17T00:48:47;21.75;;;14.55;;
23730;SDS011;12046;44.702;10.622;2022-10-17T00:51:16;19.15;;;13.70;;
23730;SDS011;12046;44.702;10.622;2022-10-17T00:53:45;19.20;;;12.77;;
23730;SDS011;12046;44.702;10.622;2022-10-17T00:56:11;19.98;;;13.27;;
23730;SDS011;12046;44.702;10.622;2022-10-17T00:58:37;19.08;;;13.07;;
23730;SDS011;12046;44.702;10.622;2022-10-17T01:01:04;24.80;;;14.48;;
23730;SDS011;12046;44.702;10.622;2022-10-17T01:03:30;20.08;;;14.25;;
23730;SDS011;12046;44.702;10.622;2022-10-17T01:05:56;21.17;;;14.82;;
23730;SDS011;12046;44.702;10.622;2022-10-17T01:08:22;24.33;;;14.77;;
23730;SDS011;12046;44.702;10.622;2022-10-17T01:11:26;23.15;;;14.00;;
23730;SDS011;12046;44.702;10.622;2022-10-17T01:14:04;18.90;;;13.70;;
23730;SDS011;12046;44.702;10.622;2022-10-17T01:19:33;19.35;;;14.10;;
23730;SDS011;12046;44.702;10.622;2022-10-17T01:22:30;24.10;;;14.65;;
23730;SDS011;12046;44.702;10.622;2022-10-17T01:27:58;23.33;;;13.65;;
23730;SDS011;12046;44.702;10.622;2022-10-17T01:33:15;20.88;;;14.15;;
23730;SDS011;12046;44.702;10.622;2022-10-17T01:35:49;24.20;;;15.13;;
23730;SDS011;12046;44.702;10.622;2022-10-17T01:38:21;25.10;;;14.45;;
23730;SDS011;12046;44.702;10.622;2022-10-17T01:40:52;18.65;;;13.80;;
23730;SDS011;12046;44.702;10.622;2022-10-17T01:43:36;22.52;;;14.95;;
23730;SDS011;12046;44.702;10.622;2022-10-17T01:46:22;21.67;;;14.27;;
23730;SDS011;12046;44.702;10.622;2022-10-17T01:48:53;28.33;;;15.10;;
23730;SDS011;12046;44.702;10.622;2022-10-17T01:51:26;25.55;;;14.50;;
23730;SDS011;12046;44.702;10.622;2022-10-17T01:54:15;23.10;;;14.65;;
23730;SDS011;12046;44.702;10.622;2022-10-17T01:56:48;20.63;;;14.40;;
23730;SDS011;12046;44.702;10.622;2022-10-17T01:59:29;24.10;;;14.93;;
23730;SDS011;12046;44.702;10.622;2022-10-17T02:02:01;22.23;;;16.30;;
23730;SDS011;12046;44.702;10.622;2022-10-17T02:04:28;22.27;;;14.15;;
23730;SDS011;12046;44.702;10.622;2022-10-17T02:06:55;20.38;;;15.23;;
23730;SDS011;12046;44.702;10.622;2022-10-17T02:09:22;21.30;;;14.38;;
23730;SDS011;12046;44.702;10.622;2022-10-17T02:11:51;23.63;;;14.85;;
23730;SDS011;12046;44.702;10.622;2022-10-17T02:17:04;20.10;;;13.95;;
23730;SDS011;12046;44.702;10.622;2022-10-17T02:30:41;21.75;;;14.43;;
23730;SDS011;12046;44.702;10.622;2022-10-17T02:33:17;26.30;;;15.18;;
23730;SDS011;12046;44.702;10.622;2022-10-17T02:36:10;18.75;;;14.02;;
23730;SDS011;12046;44.702;10.622;2022-10-17T02:38:39;20.48;;;14.60;;
23730;SDS011;12046;44.702;10.622;2022-10-17T02:41:07;23.25;;;14.75;;
23730;SDS011;12046;44.702;10.622;2022-10-17T02:43:39;18.60;;;13.67;;
23730;SDS011;12046;44.702;10.622;2022-10-17T02:46:10;18.98;;;13.90;;
23730;SDS011;12046;44.702;10.622;2022-10-17T02:49:06;22.65;;;14.35;;
23730;SDS011;12046;44.702;10.622;2022-10-17T02:54:44;19.88;;;13.98;;
23730;SDS011;12046;44.702;10.622;2022-10-17T03:00:00;21.88;;;14.32;;
23730;SDS011;12046;44.702;10.622;2022-10-17T03:02:49;23.33;;;15.00;;
23730;SDS011;12046;44.702;10.622;2022-10-17T03:05:24;19.50;;;14.10;;
23730;SDS011;12046;44.702;10.622;2022-10-17T03:07:52;21.00;;;15.15;;
23730;SDS011;12046;44.702;10.622;2022-10-17T03:10:19;21.60;;;15.18;;
23730;SDS011;12046;44.702;10.622;2022-10-17T03:12:45;23.08;;;15.80;;
23730;SDS011;12046;44.702;10.622;2022-10-17T03:15:11;24.17;;;15.52;;
23730;SDS011;12046;44.702;10.622;2022-10-17T03:17:37;21.90;;;15.68;;
23730;SDS011;12046;44.702;10.622;2022-10-17T03:20:04;24.40;;;15.70;;
23730;SDS011;12046;44.702;10.622;2022-10-17T03:22:31;24.60;;;15.23;;
23730;SDS011;12046;44.702;10.622;2022-10-17T03:24:58;22.70;;;16.08;;
23730;SDS011;12046;44.702;10.622;2022-10-17T03:27:24;22.05;;;16.17;;
23730;SDS011;12046;44.702;10.622;2022-10-17T03:29:50;22.92;;;15.05;;
23730;SDS011;12046;44.702;10.622;2022-10-17T03:32:16;23.13;;;15.73;;
23730;SDS011;12046;44.702;10.622;2022-10-17T03:34:42;21.67;;;14.75;;
23730;SDS011;12046;44.702;10.622;2022-10-17T03:37:07;24.40;;;17.00;;
23730;SDS011;12046;44.702;10.622;2022-10-17T03:39:33;24.30;;;16.75;;
23730;SDS011;12046;44.702;10.622;2022-10-17T03:41:59;27.50;;;17.25;;
23730;SDS011;12046;44.702;10.622;2022-10-17T03:44:25;33.85;;;17.50;;
23730;SDS011;12046;44.702;10.622;2022-10-17T03:46:51;33.03;;;18.35;;
23730;SDS011;12046;44.702;10.622;2022-10-17T03:49:17;28.55;;;18.00;;
23730;SDS011;12046;44.702;10.622;2022-10-17T03:51:43;30.65;;;18.85;;
23730;SDS011;12046;44.702;10.622;2022-10-17T03:54:09;32.75;;;18.80;;
23730;SDS011;12046;44.702;10.622;2022-10-17T03:56:35;32.33;;;19.10;;
23730;SDS011;12046;44.702;10.622;2022-10-17T03:59:02;30.63;;;19.23;;
23730;SDS011;12046;44.702;10.622;2022-10-17T04:01:28;32.13;;;19.55;;
23730;SDS011;12046;44.702;10.622;2022-10-17T04:03:54;31.60;;;19.55;;
23730;SDS011;12046;44.702;10.622;2022-10-17T04:06:22;29.70;;;19.15;;
23730;SDS011;12046;44.702;10.622;2022-10-17T04:08:48;38.40;;;19.63;;
23730;SDS011;12046;44.702;10.622;2022-10-17T04:11:15;32.70;;;19.38;;
23730;SDS011;12046;44.702;10.622;2022-10-17T04:13:43;34.33;;;19.98;;
23730;SDS011;12046;44.702;10.622;2022-10-17T04:16:14;32.38;;;19.55;;
23730;SDS011;12046;44.702;10.622;2022-10-17T04:18:41;31.15;;;19.42;;
23730;SDS011;12046;44.702;10.622;2022-10-17T04:21:08;30.95;;;19.45;;
23730;SDS011;12046;44.702;10.622;2022-10-17T04:23:35;31.38;;;19.08;;
23730;SDS011;12046;44.702;10.622;2022-10-17T04:26:01;32.60;;;18.98;;
23730;SDS011;12046;44.702;10.622;2022-10-17T04:28:29;30.42;;;18.20;;
23730;SDS011;12046;44.702;10.622;2022-10-17T04:30:59;31.25;;;19.85;;
23730;SDS011;12046;44.702;10.622;2022-10-17T04:33:27;32.85;;;20.25;;
23730;SDS011;12046;44.702;10.622;2022-10-17T04:35:54;34.22;;;20.02;;
23730;SDS011;12046;44.702;10.622;2022-10-17T04:38:21;37.05;;;21.05;;
23730;SDS011;12046;44.702;10.622;2022-10-17T04:40:47;33.92;;;20.55;;
23730;SDS011;12046;44.702;10.622;2022-10-17T04:43:12;31.05;;;19.42;;
23730;SDS011;12046;44.702;10.622;2022-10-17T04:45:38;38.97;;;20.95;;
23730;SDS011;12046;44.702;10.622;2022-10-17T04:48:04;32.15;;;18.38;;
23730;SDS011;12046;44.702;10.622;2022-10-17T04:50:30;34.28;;;20.23;;
23730;SDS011;12046;44.702;10.622;2022-10-17T04:52:56;34.65;;;19.88;;
23730;SDS011;12046;44.702;10.622;2022-10-17T04:55:22;33.38;;;19.85;;
23730;SDS011;12046;44.702;10.622;2022-10-17T04:57:48;31.67;;;19.50;;
23730;SDS011;12046;44.702;10.622;2022-10-17T05:00:14;32.30;;;19.80;;
23730;SDS011;12046;44.702;10.622;2022-10-17T05:02:40;31.45;;;19.10;;
23730;SDS011;12046;44.702;10.622;2022-10-17T05:05:06;28.55;;;18.77;;
23730;SDS011;12046;44.702;10.622;2022-10-17T05:07:32;30.70;;;18.48;;
23730;SDS011;12046;44.702;10.622;2022-10-17T05:09:58;31.85;;;20.60;;
23730;SDS011;12046;44.702;10.622;2022-10-17T05:12:24;36.42;;;21.65;;
23730;SDS011;12046;44.702;10.622;2022-10-17T05:14:50;32.42;;;20.02;;
23730;SDS011;12046;44.702;10.622;2022-10-17T05:17:16;35.88;;;20.67;;
23730;SDS011;12046;44.702;10.622;2022-10-17T05:19:42;29.73;;;19.25;;
23730;SDS011;12046;44.702;10.622;2022-10-17T05:22:08;32.20;;;19.05;;
23730;SDS011;12046;44.702;10.622;2022-10-17T05:24:34;30.25;;;19.70;;
23730;SDS011;12046;44.702;10.622;2022-10-17T05:27:00;32.03;;;20.65;;
23730;SDS011;12046;44.702;10.622;2022-10-17T05:29:26;34.25;;;19.88;;
23730;SDS011;12046;44.702;10.622;2022-10-17T05:31:52;28.45;;;18.50;;
23730;SDS011;12046;44.702;10.622;2022-10-17T05:34:18;28.15;;;18.52;;
23730;SDS011;12046;44.702;10.622;2022-10-17T05:36:45;32.85;;;18.98;;
23730;SDS011;12046;44.702;10.622;2022-10-17T05:39:11;29.08;;;17.85;;
23730;SDS011;12046;44.702;10.622;2022-10-17T05:41:39;27.67;;;18.92;;
23730;SDS011;12046;44.702;10.622;2022-10-17T05:44:05;30.17;;;19.05;;
23730;SDS011;12046;44.702;10.622;2022-10-17T05:46:31;29.70;;;19.02;;
23730;SDS011;12046;44.702;10.622;2022-10-17T05:48:57;33.35;;;19.50;;
23730;SDS011;12046;44.702;10.622;2022-10-17T05:51:23;33.00;;;19.20;;
23730;SDS011;12046;44.702;10.622;2022-10-17T05:53:49;34.72;;;20.65;;
23730;SDS011;12046;44.702;10.622;2022-10-17T05:56:15;34.88;;;20.30;;
23730;SDS011;12046;44.702;10.622;2022-10-17T05:58:42;35.08;;;20.55;;
23730;SDS011;12046;44.702;10.622;2022-10-17T06:01:09;34.20;;;18.75;;
23730;SDS011;12046;44.702;10.622;2022-10-17T06:03:37;33.92;;;19.73;;
23730;SDS011;12046;44.702;10.622;2022-10-17T06:06:07;35.53;;;20.75;;
23730;SDS011;12046;44.702;10.622;2022-10-17T06:11:03;32.05;;;18.65;;
23730;SDS011;12046;44.702;10.622;2022-10-17T06:13:30;36.05;;;21.27;;
23730;SDS011;12046;44.702;10.622;2022-10-17T06:15:56;32.88;;;20.75;;
23730;SDS011;12046;44.702;10.622;2022-10-17T06:18:22;32.08;;;19.60;;
23730;SDS011;12046;44.702;10.622;2022-10-17T06:20:48;33.80;;;19.40;;
23730;SDS011;12046;44.702;10.622;2022-10-17T06:23:14;33.58;;;19.90;;
23730;SDS011;12046;44.702;10.622;2022-10-17T06:25:40;29.92;;;20.10;;
23730;SDS011;12046;44.702;10.622;2022-10-17T06:28:06;32.92;;;19.65;;
23730;SDS011;12046;44.702;10.622;2022-10-17T06:30:32;26.20;;;18.02;;
23730;SDS011;12046;44.702;10.622;2022-10-17T06:32:58;26.88;;;17.35;;
23730;SDS011;12046;44.702;10.622;2022-10-17T06:35:24;27.85;;;18.55;;
23730;SDS011;12046;44.702;10.622;2022-10-17T06:37:50;24.65;;;16.35;;
23730;SDS011;12046;44.702;10.622;2022-10-17T06:40:16;32.67;;;17.02;;
23730;SDS011;12046;44.702;10.622;2022-10-17T06:42:41;30.38;;;16.90;;
23730;SDS011;12046;44.702;10.622;2022-10-17T06:45:08;26.63;;;16.67;;
23730;SDS011;12046;44.702;10.622;2022-10-17T06:47:34;25.30;;;15.65;;
23730;SDS011;12046;44.702;10.622;2022-10-17T06:50:00;22.42;;;15.68;;
23730;SDS011;12046;44.702;10.622;2022-10-17T06:52:26;22.98;;;15.60;;
23730;SDS011;12046;44.702;10.622;2022-10-17T06:54:52;21.30;;;15.13;;
23730;SDS011;12046;44.702;10.622;2022-10-17T06:57:18;21.73;;;14.75;;
23730;SDS011;12046;44.702;10.622;2022-10-17T06:59:44;26.30;;;15.27;;
23730;SDS011;12046;44.702;10.622;2022-10-17T07:02:10;19.80;;;14.68;;
23730;SDS011;12046;44.702;10.622;2022-10-17T07:04:36;19.52;;;14.02;;
23730;SDS011;12046;44.702;10.622;2022-10-17T07:07:02;24.17;;;15.00;;
23730;SDS011;12046;44.702;10.622;2022-10-17T07:09:29;25.90;;;15.60;;
23730;SDS011;12046;44.702;10.622;2022-10-17T07:11:56;20.63;;;14.57;;
23730;SDS011;12046;44.702;10.622;2022-10-17T07:14:25;22.00;;;14.77;;
23730;SDS011;12046;44.702;10.622;2022-10-17T07:16:59;22.08;;;15.50;;
23730;SDS011;12046;44.702;10.622;2022-10-17T07:19:26;20.85;;;13.57;;
23730;SDS011;12046;44.702;10.622;2022-10-17T07:21:52;25.05;;;15.05;;
23730;SDS011;12046;44.702;10.622;2022-10-17T07:24:18;23.67;;;15.48;;
23730;SDS011;12046;44.702;10.622;2022-10-17T07:26:44;19.90;;;13.98;;
23730;SDS011;12046;44.702;10.622;2022-10-17T07:29:10;22.55;;;13.98;;
23730;SDS011;12046;44.702;10.622;2022-10-17T07:31:37;22.70;;;14.68;;
23730;SDS011;12046;44.702;10.622;2022-10-17T07:34:03;19.77;;;13.77;;
23730;SDS011;12046;44.702;10.622;2022-10-17T07:36:35;22.30;;;14.73;;
23730;SDS011;12046;44.702;10.622;2022-10-17T07:39:01;19.85;;;14.45;;
23730;SDS011;12046;44.702;10.622;2022-10-17T07:41:27;19.83;;;14.45;;
23730;SDS011;12046;44.702;10.622;2022-10-17T07:43:54;19.55;;;13.32;;
23730;SDS011;12046;44.702;10.622;2022-10-17T07:46:20;20.33;;;14.07;;
23730;SDS011;12046;44.702;10.622;2022-10-17T07:48:46;20.52;;;13.90;;
23730;SDS011;12046;44.702;10.622;2022-10-17T07:51:12;20.67;;;14.38;;
23730;SDS011;12046;44.702;10.622;2022-10-17T07:53:38;18.85;;;13.98;;
23730;SDS011;12046;44.702;10.622;2022-10-17T07:56:05;18.02;;;13.75;;
23730;SDS011;12046;44.702;10.622;2022-10-17T07:58:32;19.33;;;14.63;;
23730;SDS011;12046;44.702;10.622;2022-10-17T08:01:00;21.55;;;13.95;;
23730;SDS011;12046;44.702;10.622;2022-10-17T08:03:30;20.58;;;14.55;;
23730;SDS011;12046;44.702;10.622;2022-10-17T08:05:59;23.20;;;14.82;;
23730;SDS011;12046;44.702;10.622;2022-10-17T08:08:26;20.58;;;14.45;;
23730;SDS011;12046;44.702;10.622;2022-10-17T08:10:54;17.88;;;13.95;;
23730;SDS011;12046;44.702;10.622;2022-10-17T08:13:25;28.52;;;14.98;;
23730;SDS011;12046;44.702;10.622;2022-10-17T08:15:51;18.42;;;13.88;;
23730;SDS011;12046;44.702;10.622;2022-10-17T08:18:17;22.30;;;15.40;;
23730;SDS011;12046;44.702;10.622;2022-10-17T08:20:43;21.83;;;13.93;;
23730;SDS011;12046;44.702;10.622;2022-10-17T08:23:09;22.35;;;14.52;;
23730;SDS011;12046;44.702;10.622;2022-10-17T08:25:38;18.52;;;13.65;;
23730;SDS011;12046;44.702;10.622;2022-10-17T08:28:05;20.38;;;14.45;;
23730;SDS011;12046;44.702;10.622;2022-10-17T08:30:31;19.60;;;14.00;;
23730;SDS011;12046;44.702;10.622;2022-10-17T08:32:57;21.10;;;14.07;;
23730;SDS011;12046;44.702;10.622;2022-10-17T08:35:27;21.60;;;15.15;;
23730;SDS011;12046;44.702;10.622;2022-10-17T08:37:53;22.08;;;14.75;;
23730;SDS011;12046;44.702;10.622;2022-10-17T08:40:20;23.70;;;14.00;;
23730;SDS011;12046;44.702;10.622;2022-10-17T08:45:32;18.80;;;13.63;;
23730;SDS011;12046;44.702;10.622;2022-10-17T08:48:10;18.65;;;14.30;;
23730;SDS011;12046;44.702;10.622;2022-10-17T08:50:50;19.90;;;13.27;;
23730;SDS011;12046;44.702;10.622;2022-10-17T08:53:39;19.55;;;12.70;;
23730;SDS011;12046;44.702;10.622;2022-10-17T08:56:17;19.38;;;13.70;;
23730;SDS011;12046;44.702;10.622;2022-10-17T08:58:45;17.40;;;13.27;;
23730;SDS011;12046;44.702;10.622;2022-10-17T09:01:28;18.23;;;13.10;;
23730;SDS011;12046;44.702;10.622;2022-10-17T09:10:54;16.27;;;13.05;;
23730;SDS011;12046;44.702;10.622;2022-10-17T09:18:37;20.55;;;13.43;;
23730;SDS011;12046;44.702;10.622;2022-10-17T09:23:41;14.88;;;12.45;;
23730;SDS011;12046;44.702;10.622;2022-10-17T09:26:13;16.42;;;13.90;;
23730;SDS011;12046;44.702;10.622;2022-10-17T09:28:40;18.42;;;13.48;;
23730;SDS011;12046;44.702;10.622;2022-10-17T09:34:07;19.42;;;12.25;;
23730;SDS011;12046;44.702;10.622;2022-10-17T09:36:36;19.00;;;13.40;;
23730;SDS011;12046;44.702;10.622;2022-10-17T09:39:04;16.48;;;12.90;;
23730;SDS011;12046;44.702;10.622;2022-10-17T09:41:39;17.60;;;13.52;;
23730;SDS011;12046;44.702;10.622;2022-10-17T09:44:13;17.33;;;13.60;;
23730;SDS011;12046;44.702;10.622;2022-10-17T09:52:01;17.88;;;13.35;;
23730;SDS011;12046;44.702;10.622;2022-10-17T09:54:33;16.58;;;13.65;;
23730;SDS011;12046;44.702;10.622;2022-10-17T09:57:53;17.15;;;13.55;;
23730;SDS011;12046;44.702;10.622;2022-10-17T10:00:44;18.38;;;14.55;;
23730;SDS011;12046;44.702;10.622;2022-10-17T10:03:20;18.70;;;15.13;;
23730;SDS011;12046;44.702;10.622;2022-10-17T10:05:58;19.38;;;15.02;;
23730;SDS011;12046;44.702;10.622;2022-10-17T10:08:36;19.20;;;14.90;;
23730;SDS011;12046;44.702;10.622;2022-10-17T10:11:14;19.92;;;15.32;;
23730;SDS011;12046;44.702;10.622;2022-10-17T10:13:42;22.67;;;15.45;;
23730;SDS011;12046;44.702;10.622;2022-10-17T10:18:44;22.65;;;15.82;;
23730;SDS011;12046;44.702;10.622;2022-10-17T10:21:21;22.35;;;17.27;;
23730;SDS011;12046;44.702;10.622;2022-10-17T10:26:28;19.77;;;16.30;;
23730;SDS011;12046;44.702;10.622;2022-10-17T10:29:00;21.13;;;14.85;;
23730;SDS011;12046;44.702;10.622;2022-10-17T10:31:33;25.10;;;16.33;;
23730;SDS011;12046;44.702;10.622;2022-10-17T10:37:14;22.80;;;16.50;;
23730;SDS011;12046;44.702;10.622;2022-10-17T10:39:47;19.33;;;15.90;;
23730;SDS011;12046;44.702;10.622;2022-10-17T10:42:25;20.85;;;16.65;;
23730;SDS011;12046;44.702;10.622;2022-10-17T10:50:25;22.02;;;16.90;;
23730;SDS011;12046;44.702;10.622;2022-10-17T10:55:50;22.27;;;17.92;;
23730;SDS011;12046;44.702;10.622;2022-10-17T10:58:33;22.27;;;16.73;;
23730;SDS011;12046;44.702;10.622;2022-10-17T11:07:06;25.67;;;17.70;;
23730;SDS011;12046;44.702;10.622;2022-10-17T11:12:55;23.35;;;17.38;;
23730;SDS011;12046;44.702;10.622;2022-10-17T11:18:49;25.58;;;17.73;;
23730;SDS011;12046;44.702;10.622;2022-10-17T11:21:27;24.83;;;17.63;;
23730;SDS011;12046;44.702;10.622;2022-10-17T11:25:03;26.80;;;17.98;;
23730;SDS011;12046;44.702;10.622;2022-10-17T11:27:08;30.17;;;17.83;;
23730;SDS011;12046;44.702;10.622;2022-10-17T11:29:35;26.85;;;19.48;;
23730;SDS011;12046;44.702;10.622;2022-10-17T11:32:05;24.67;;;17.65;;
23730;SDS011;12046;44.702;10.622;2022-10-17T11:34:39;29.15;;;19.27;;
23730;SDS011;12046;44.702;10.622;2022-10-17T11:37:29;30.48;;;18.15;;
23730;SDS011;12046;44.702;10.622;2022-10-17T11:40:13;21.65;;;15.10;;
23730;SDS011;12046;44.702;10.622;2022-10-17T11:43:17;18.95;;;15.00;;
23730;SDS011;12046;44.702;10.622;2022-10-17T11:45:48;24.02;;;16.80;;
23730;SDS011;12046;44.702;10.622;2022-10-17T11:48:21;22.83;;;16.30;;
23730;SDS011;12046;44.702;10.622;2022-10-17T11:50:59;22.17;;;17.08;;
23730;SDS011;12046;44.702;10.622;2022-10-17T11:53:56;21.50;;;15.77;;
23730;SDS011;12046;44.702;10.622;2022-10-17T12:01:55;25.55;;;17.42;;
23730;SDS011;12046;44.702;10.622;2022-10-17T12:15:53;22.80;;;17.63;;
23730;SDS011;12046;44.702;10.622;2022-10-17T12:18:22;25.70;;;17.80;;
23730;SDS011;12046;44.702;10.622;2022-10-17T12:20:56;19.13;;;13.10;;
23730;SDS011;12046;44.702;10.622;2022-10-17T12:23:26;19.40;;;14.23;;
23730;SDS011;12046;44.702;10.622;2022-10-17T12:25:54;25.83;;;16.00;;
23730;SDS011;12046;44.702;10.622;2022-10-17T12:31:29;27.08;;;16.45;;
23730;SDS011;12046;44.702;10.622;2022-10-17T12:33:58;21.88;;;15.73;;
23730;SDS011;12046;44.702;10.622;2022-10-17T12:49:38;23.67;;;15.95;;
23730;SDS011;12046;44.702;10.622;2022-10-17T12:54:30;25.55;;;16.90;;
23730;SDS011;12046;44.702;10.622;2022-10-17T12:57:02;21.40;;;15.73;;
23730;SDS011;12046;44.702;10.622;2022-10-17T12:59:54;24.23;;;15.63;;
23730;SDS011;12046;44.702;10.622;2022-10-17T13:02:22;22.70;;;14.50;;
23730;SDS011;12046;44.702;10.622;2022-10-17T13:04:55;23.50;;;16.85;;
23730;SDS011;12046;44.702;10.622;2022-10-17T13:07:35;22.00;;;15.02;;
23730;SDS011;12046;44.702;10.622;2022-10-17T13:10:05;22.00;;;15.70;;
23730;SDS011;12046;44.702;10.622;2022-10-17T13:12:33;20.70;;;15.52;;
23730;SDS011;12046;44.702;10.622;2022-10-17T13:15:02;24.02;;;15.73;;
23730;SDS011;12046;44.702;10.622;2022-10-17T13:17:31;20.52;;;14.88;;
23730;SDS011;12046;44.702;10.622;2022-10-17T13:19:57;21.33;;;15.75;;
23730;SDS011;12046;44.702;10.622;2022-10-17T13:22:28;21.27;;;15.68;;
23730;SDS011;12046;44.702;10.622;2022-10-17T13:25:12;21.70;;;15.07;;
23730;SDS011;12046;44.702;10.622;2022-10-17T13:27:40;19.80;;;14.77;;
23730;SDS011;12046;44.702;10.622;2022-10-17T13:30:29;21.15;;;14.48;;
23730;SDS011;12046;44.702;10.622;2022-10-17T13:33:00;27.05;;;15.98;;
23730;SDS011;12046;44.702;10.622;2022-10-17T13:35:30;21.35;;;14.27;;
23730;SDS011;12046;44.702;10.622;2022-10-17T13:38:00;20.05;;;14.20;;
23730;SDS011;12046;44.702;10.622;2022-10-17T13:40:29;19.27;;;13.25;;
23730;SDS011;12046;44.702;10.622;2022-10-17T13:45:31;20.48;;;14.68;;
23730;SDS011;12046;44.702;10.622;2022-10-17T13:48:00;21.65;;;13.80;;
23730;SDS011;12046;44.702;10.622;2022-10-17T13:50:36;20.58;;;14.07;;
23730;SDS011;12046;44.702;10.622;2022-10-17T13:53:28;19.27;;;13.55;;
23730;SDS011;12046;44.702;10.622;2022-10-17T13:56:03;22.23;;;14.10;;
23730;SDS011;12046;44.702;10.622;2022-10-17T13:58:38;19.38;;;12.85;;
23730;SDS011;12046;44.702;10.622;2022-10-17T14:01:10;26.90;;;15.20;;
23730;SDS011;12046;44.702;10.622;2022-10-17T14:03:42;20.98;;;14.38;;
23730;SDS011;12046;44.702;10.622;2022-10-17T14:08:47;20.92;;;14.85;;
23730;SDS011;12046;44.702;10.622;2022-10-17T14:11:39;19.05;;;13.88;;
23730;SDS011;12046;44.702;10.622;2022-10-17T14:14:26;18.95;;;12.02;;
23730;SDS011;12046;44.702;10.622;2022-10-17T14:17:25;19.65;;;12.65;;
23730;SDS011;12046;44.702;10.622;2022-10-17T14:20:01;19.95;;;13.20;;
23730;SDS011;12046;44.702;10.622;2022-10-17T14:22:34;18.25;;;13.13;;
23730;SDS011;12046;44.702;10.622;2022-10-17T14:25:02;17.25;;;12.30;;
23730;SDS011;12046;44.702;10.622;2022-10-17T14:27:36;19.40;;;12.40;;
23730;SDS011;12046;44.702;10.622;2022-10-17T14:32:57;16.90;;;11.27;;
23730;SDS011;12046;44.702;10.622;2022-10-17T14:35:26;18.30;;;11.55;;
23730;SDS011;12046;44.702;10.622;2022-10-17T14:37:52;14.07;;;11.25;;
23730;SDS011;12046;44.702;10.622;2022-10-17T14:40:24;19.98;;;11.98;;
23730;SDS011;12046;44.702;10.622;2022-10-17T14:42:52;18.42;;;11.80;;
23730;SDS011;12046;44.702;10.622;2022-10-17T14:47:49;16.23;;;11.25;;
23730;SDS011;12046;44.702;10.622;2022-10-17T14:50:22;23.45;;;12.20;;
23730;SDS011;12046;44.702;10.622;2022-10-17T14:52:58;18.13;;;10.10;;
23730;SDS011;12046;44.702;10.622;2022-10-17T14:55:32;13.52;;;10.77;;
23730;SDS011;12046;44.702;10.622;2022-10-17T14:58:00;15.73;;;11.80;;
23730;SDS011;12046;44.702;10.622;2022-10-17T15:00:26;14.35;;;10.25;;
23730;SDS011;12046;44.702;10.622;2022-10-17T15:02:54;15.55;;;10.65;;
23730;SDS011;12046;44.702;10.622;2022-10-17T15:05:20;15.15;;;10.30;;
23730;SDS011;12046;44.702;10.622;2022-10-17T15:07:47;16.13;;;11.25;;
23730;SDS011;12046;44.702;10.622;2022-10-17T15:10:25;21.05;;;11.18;;
23730;SDS011;12046;44.702;10.622;2022-10-17T15:12:57;14.20;;;9.65;;
23730;SDS011;12046;44.702;10.622;2022-10-17T15:15:27;18.08;;;10.32;;
23730;SDS011;12046;44.702;10.622;2022-10-17T15:17:54;13.73;;;10.25;;
23730;SDS011;12046;44.702;10.622;2022-10-17T15:20:20;12.88;;;10.20;;
23730;SDS011;12046;44.702;10.622;2022-10-17T15:22:51;16.50;;;10.85;;
23730;SDS011;12046;44.702;10.622;2022-10-17T15:25:18;21.10;;;11.55;;
23730;SDS011;12046;44.702;10.622;2022-10-17T15:27:44;18.40;;;10.23;;
23730;SDS011;12046;44.702;10.622;2022-10-17T15:30:21;14.32;;;10.50;;
23730;SDS011;12046;44.702;10.622;2022-10-17T15:32:56;13.35;;;9.50;;
23730;SDS011;12046;44.702;10.622;2022-10-17T15:35:23;13.73;;;10.40;;
23730;SDS011;12046;44.702;10.622;2022-10-17T15:37:50;15.05;;;9.45;;
23730;SDS011;12046;44.702;10.622;2022-10-17T15:40:18;14.27;;;9.45;;
23730;SDS011;12046;44.702;10.622;2022-10-17T15:42:45;18.40;;;10.88;;
23730;SDS011;12046;44.702;10.622;2022-10-17T15:45:12;16.65;;;10.65;;
23730;SDS011;12046;44.702;10.622;2022-10-17T15:47:40;14.13;;;10.02;;
23730;SDS011;12046;44.702;10.622;2022-10-17T15:50:15;16.45;;;10.60;;
23730;SDS011;12046;44.702;10.622;2022-10-17T15:52:42;12.95;;;9.75;;
23730;SDS011;12046;44.702;10.622;2022-10-17T15:55:09;16.77;;;11.00;;
23730;SDS011;12046;44.702;10.622;2022-10-17T15:57:36;14.10;;;9.52;;
23730;SDS011;12046;44.702;10.622;2022-10-17T16:00:13;15.45;;;10.45;;
23730;SDS011;12046;44.702;10.622;2022-10-17T16:02:44;16.52;;;10.07;;
23730;SDS011;12046;44.702;10.622;2022-10-17T16:07:42;16.63;;;10.45;;
23730;SDS011;12046;44.702;10.622;2022-10-17T16:10:14;19.75;;;10.80;;
23730;SDS011;12046;44.702;10.622;2022-10-17T16:12:41;18.10;;;11.68;;
23730;SDS011;12046;44.702;10.622;2022-10-17T16:15:12;21.02;;;11.05;;
23730;SDS011;12046;44.702;10.622;2022-10-17T16:17:50;19.10;;;11.77;;
23730;SDS011;12046;44.702;10.622;2022-10-17T16:20:17;22.33;;;11.88;;
23730;SDS011;12046;44.702;10.622;2022-10-17T16:22:44;22.33;;;11.32;;
23730;SDS011;12046;44.702;10.622;2022-10-17T16:27:44;18.75;;;11.40;;
23730;SDS011;12046;44.702;10.622;2022-10-17T16:30:11;17.35;;;10.10;;
23730;SDS011;12046;44.702;10.622;2022-10-17T16:32:38;19.48;;;11.27;;
23730;SDS011;12046;44.702;10.622;2022-10-17T16:35:04;21.70;;;11.05;;
23730;SDS011;12046;44.702;10.622;2022-10-17T16:37:32;19.17;;;11.70;;
23730;SDS011;12046;44.702;10.622;2022-10-17T16:40:00;26.75;;;11.25;;
23730;SDS011;12046;44.702;10.622;2022-10-17T16:42:26;16.27;;;10.98;;
23730;SDS011;12046;44.702;10.622;2022-10-17T16:44:52;17.85;;;11.23;;
23730;SDS011;12046;44.702;10.622;2022-10-17T16:47:18;19.85;;;11.07;;